Time;durP1;ratioP1;P1;durP2;ratioP2;P2;SDS_P1;SDS_P2;PMS_P1;PMS_P2;Temp;Humidity;BMP_temperature;BMP_pressure;BME280_temperature;BME280_humidity;BME280_pressure;Samples;Min_cycle;Max_cycle;Signal;HPM_P1;HPM_P2
2023/11/06 00:02:01;;;;;;;1.63;1.50;;;9.00;93.10;;;10.85;62.41;96179.91;5071778;28;20059;-47
2023/11/06 00:04:28;;;;;;;0.87;0.70;;;9.10;92.70;;;10.89;62.91;96189.16;5072712;28;20431;-44
2023/11/06 00:06:56;;;;;;;1.10;0.70;;;9.20;91.40;;;10.92;62.81;96182.63;5073069;28;20415;-45
2023/11/06 00:09:24;;;;;;;4.40;1.23;;;9.20;91.00;;;10.95;62.25;96193.69;5073412;28;20040;-45
2023/11/06 00:11:51;;;;;;;4.80;1.20;;;9.30;90.90;;;10.94;62.55;96191.22;5065287;28;20051;-50
2023/11/06 00:14:19;;;;;;;1.43;0.63;;;9.20;90.90;;;10.94;62.25;96199.22;5073751;28;20408;-49
2023/11/06 00:16:47;;;;;;;1.27;0.50;;;9.20;91.80;;;10.91;62.48;96186.28;5073513;28;20039;-45
2023/11/06 00:19:14;;;;;;;1.77;0.67;;;9.10;92.30;;;10.89;62.36;96196.31;5073318;28;20051;-45
2023/11/06 00:21:43;;;;;;;0.63;0.60;;;9.00;92.40;;;10.84;62.31;96188.94;5072784;28;20055;-48
2023/11/06 00:24:10;;;;;;;1.90;0.80;;;9.00;92.10;;;10.79;62.22;96186.03;5055474;28;20056;-50
2023/11/06 00:26:38;;;;;;;1.23;0.80;;;9.00;92.30;;;10.78;62.62;96195.06;5073170;28;20380;-48
2023/11/06 00:29:07;;;;;;;2.50;1.03;;;9.00;92.90;;;10.77;62.57;96201.38;5073451;28;20052;-47
2023/11/06 00:31:41;;;;;;;1.83;0.70;;;8.90;93.60;;;10.77;62.58;96193.41;5073037;28;20037;-45
2023/11/06 00:34:08;;;;;;;;;;;8.90;93.60;;;10.76;62.88;96197.91;5054758;28;20060;-45
2023/11/06 00:36:36;;;;;;;0.87;0.60;;;8.80;93.90;;;10.78;62.46;96192.41;5055109;28;20391;-47
2023/11/06 00:39:03;;;;;;;2.67;1.00;;;8.80;95.20;;;10.78;62.57;96192.41;5054559;28;20052;-47
2023/11/06 00:41:31;;;;;;;1.60;1.30;;;8.80;95.30;;;10.78;62.81;96197.72;5072566;28;20051;-46
2023/11/06 00:43:58;;;;;;;5.73;0.90;;;8.90;95.20;;;10.78;62.81;96195.88;5072967;28;20045;-47
2023/11/06 00:46:26;;;;;;;2.97;0.83;;;8.90;94.80;;;10.79;62.98;96200.16;5072914;28;20044;-47
2023/11/06 00:48:54;;;;;;;2.80;0.80;;;8.90;95.50;;;10.82;62.68;96198.97;5072864;28;20040;-45
2023/11/06 00:51:22;;;;;;;1.30;0.80;;;9.00;95.20;;;10.83;63.22;96197.94;5062215;28;20048;-48
2023/11/06 00:53:49;;;;;;;1.70;1.00;;;8.90;95.30;;;10.84;62.94;96197.75;5054270;28;20059;-47
2023/11/06 00:56:17;;;;;;;2.73;1.10;;;9.00;94.90;;;10.84;62.87;96208.38;5072608;28;20063;-46
2023/11/06 00:58:46;;;;;;;2.57;1.17;;;9.10;94.60;;;10.80;63.43;96203.66;5055125;28;20045;-47
2023/11/06 01:01:14;;;;;;;2.07;1.00;;;9.10;93.90;;;10.79;63.27;96213.47;5053712;28;20040;-44
2023/11/06 01:03:42;;;;;;;3.77;1.53;;;9.20;94.20;;;10.77;63.64;96210.19;5054220;28;20049;-46
2023/11/06 01:06:12;;;;;;;4.43;1.30;;;9.10;94.90;;;10.78;63.45;96219.03;5072648;28;20043;-46
2023/11/06 01:08:40;;;;;;;4.40;1.27;;;9.10;94.70;;;10.78;63.36;96213.69;5054236;28;20041;-48
2023/11/06 01:11:09;;;;;;;2.13;1.20;;;9.00;94.80;;;10.77;63.41;96220.03;5053926;28;20041;-49
2023/11/06 01:13:36;;;;;;;1.67;1.00;;;9.00;95.30;;;10.75;63.43;96214.06;5072326;28;20040;-47
2023/11/06 01:16:05;;;;;;;3.90;1.40;;;9.00;95.60;;;10.75;63.82;96214.88;5054036;28;20059;-47
2023/11/06 01:18:33;;;;;;;2.40;1.10;;;8.90;95.90;;;10.75;63.81;96216.75;5053708;28;20048;-49
2023/11/06 01:21:00;;;;;;;1.90;1.00;;;8.90;96.30;;;10.76;63.46;96221.03;5071779;28;20074;-47
2023/11/06 01:23:28;;;;;;;5.50;1.37;;;8.90;96.50;;;10.75;63.51;96220.22;5062223;28;20044;-46
2023/11/06 01:25:57;;;;;;;3.50;1.40;;;8.90;96.30;;;10.74;63.46;96221.25;5046129;28;20042;-48
2023/11/06 01:28:25;;;;;;;1.87;1.40;;;8.90;95.80;;;10.74;63.69;96225.72;5053889;28;20526;-48
2023/11/06 01:30:52;;;;;;;4.20;1.47;;;8.90;96.10;;;10.70;63.72;96225.31;5071616;28;20048;-45
2023/11/06 01:33:20;;;;;;;2.47;0.90;;;8.90;95.30;;;10.67;63.88;96223.03;5072178;28;20051;-48
2023/11/06 01:35:48;;;;;;;2.37;1.40;;;8.90;95.70;;;10.64;64.18;96218.94;5053404;28;20047;-47
2023/11/06 01:38:15;;;;;;;4.53;1.03;;;8.80;95.80;;;10.57;64.01;96226.06;5053884;28;20059;-46
2023/11/06 01:40:43;;;;;;;3.97;1.10;;;8.80;95.70;;;10.56;64.02;96219.06;5053499;28;20045;-45
2023/11/06 01:43:21;;;;;;;3.37;1.53;;;8.80;94.20;;;10.54;63.81;96229.09;5053589;28;20048;-45
2023/11/06 01:45:49;;;;;;;3.73;1.27;;;8.80;94.40;;;10.53;63.55;96224.00;5053333;28;20049;-45
2023/11/06 01:48:18;;;;;;;1.53;0.83;;;8.80;94.30;;;10.56;63.55;96228.91;5037239;28;20036;-46
2023/11/06 01:50:46;;;;;;;1.43;1.03;;;8.90;92.90;;;10.53;63.62;96221.34;5053045;28;20416;-45
2023/11/06 01:53:15;;;;;;;1.77;0.80;;;8.90;92.70;;;10.52;63.75;96225.00;5036733;28;20047;-45
2023/11/06 01:55:45;;;;;;;1.40;0.83;;;8.90;92.20;;;10.54;63.29;96237.09;5054116;28;20041;-45
2023/11/06 01:58:14;;;;;;;1.87;1.20;;;8.90;92.30;;;10.53;63.32;96230.13;5071597;28;20511;-46
2023/11/06 02:00:45;;;;;;;5.00;1.30;;;9.00;92.30;;;10.53;63.76;96246.09;5036554;28;20040;-46
2023/11/06 02:03:13;;;;;;;4.67;1.30;;;9.00;92.10;;;10.50;63.65;96241.16;5037182;28;20510;-44
2023/11/06 02:05:43;;;;;;;1.73;1.00;;;9.00;91.10;;;10.55;63.42;96237.94;5052249;28;20043;-45
2023/11/06 02:08:11;;;;;;;2.13;0.90;;;9.00;91.40;;;10.58;63.46;96242.84;5053312;28;20051;-45
2023/11/06 02:10:39;;;;;;;2.90;1.03;;;9.00;91.90;;;10.58;63.12;96245.50;5052996;28;20051;-42
2023/11/06 02:13:06;;;;;;;2.40;1.40;;;8.90;92.00;;;10.56;63.60;96255.53;5052615;28;20044;-46
2023/11/06 02:15:34;;;;;;;2.87;1.57;;;8.90;92.70;;;10.50;63.74;96253.66;5071427;28;20040;-45
2023/11/06 02:18:02;;;;;;;3.97;1.77;;;8.90;92.80;;;10.53;63.27;96248.75;5071461;28;20037;-45
2023/11/06 02:20:30;;;;;;;2.33;1.33;;;8.90;93.90;;;10.43;63.57;96246.44;5071463;28;20028;-47
2023/11/06 02:23:03;;;;;;;1.57;1.30;;;8.90;92.40;;;10.44;63.58;96247.25;5052549;28;20052;-45
2023/11/06 02:25:31;;;;;;;2.67;1.50;;;8.90;92.10;;;10.48;63.44;96248.50;5070824;28;20036;-46
2023/11/06 02:27:59;;;;;;;1.63;0.80;;;8.90;92.50;;;10.54;63.46;96249.56;5053117;28;20420;-47
2023/11/06 02:30:27;;;;;;;2.70;0.83;;;8.90;92.10;;;10.54;63.60;96261.03;5052310;28;20043;-47
2023/11/06 02:32:54;;;;;;;4.13;1.70;;;8.90;92.40;;;10.57;63.28;96265.16;5070780;28;20051;-49
2023/11/06 02:35:23;;;;;;;4.13;1.20;;;8.90;92.40;;;10.56;63.40;96263.50;5071237;28;20043;-47
2023/11/06 02:37:52;;;;;;;2.77;1.00;;;8.90;92.00;;;10.60;63.55;96273.59;5052758;28;20055;-46
2023/11/06 02:40:20;;;;;;;5.27;1.30;;;9.00;92.00;;;10.58;63.34;96267.59;5052579;28;20059;-46
2023/11/06 02:42:48;;;;;;;4.17;1.00;;;9.00;91.70;;;10.52;63.75;96271.06;5052393;28;20053;-51
2023/11/06 02:45:16;;;;;;;0.97;0.73;;;8.90;92.30;;;10.55;63.52;96267.19;5070744;28;20041;-47
2023/11/06 02:47:44;;;;;;;1.53;0.80;;;8.90;92.20;;;10.59;63.27;96266.59;5070937;28;20043;-48
2023/11/06 02:50:12;;;;;;;3.23;1.00;;;8.90;92.10;;;10.62;63.00;96271.53;5070902;28;20500;-46
2023/11/06 02:52:40;;;;;;;3.17;1.27;;;8.90;92.10;;;10.61;63.10;96285.03;5052329;28;20044;-48
2023/11/06 02:55:08;;;;;;;1.37;0.70;;;8.90;92.30;;;10.59;63.06;96287.06;5036562;28;20048;-49
2023/11/06 02:57:36;;;;;;;3.03;1.00;;;8.90;92.90;;;10.59;63.01;96295.88;5053045;28;20079;-48
2023/11/06 03:00:06;;;;;;;0.70;0.70;;;8.90;92.90;;;10.58;63.03;96301.38;5053092;28;20044;-47
2023/11/06 03:02:35;;;;;;;2.07;0.90;;;8.80;92.80;;;10.62;62.88;96308.81;5050469;28;20051;-48
2023/11/06 03:05:03;;;;;;;3.33;2.30;;;8.90;92.80;;;10.68;62.85;96309.03;5059374;28;20048;-45
2023/11/06 03:07:32;;;;;;;1.40;0.90;;;8.90;92.60;;;10.69;62.92;96319.50;5036501;28;20049;-49
2023/11/06 03:10:00;;;;;;;2.43;0.80;;;8.90;92.20;;;10.70;62.95;96321.16;5070784;28;20036;-46
2023/11/06 03:12:28;;;;;;;1.30;0.80;;;8.90;92.30;;;10.71;62.80;96327.28;5070589;28;20028;-47
2023/11/06 03:14:55;;;;;;;2.63;1.10;;;8.90;92.10;;;10.72;63.18;96326.25;5052076;28;20052;-47
2023/11/06 03:17:23;;;;;;;2.53;0.90;;;8.90;92.70;;;10.73;62.69;96326.06;5052382;28;20045;-47
2023/11/06 03:19:51;;;;;;;1.60;0.90;;;8.90;92.60;;;10.73;63.18;96323.41;5052687;28;20060;-46
2023/11/06 03:22:19;;;;;;;1.43;0.80;;;8.90;93.00;;;10.75;63.06;96332.00;5068676;28;20049;-44
2023/11/06 03:24:47;;;;;;;1.30;0.93;;;9.00;92.60;;;10.78;62.99;96344.13;5070503;28;20041;-44
2023/11/06 03:27:14;;;;;;;1.53;0.90;;;9.00;92.60;;;10.81;62.72;96349.06;5052685;28;20036;-44
2023/11/06 03:29:42;;;;;;;1.90;1.00;;;9.00;92.40;;;10.81;63.19;96359.69;5070877;28;20044;-46
2023/11/06 03:32:09;;;;;;;1.70;0.70;;;9.00;92.70;;;10.82;62.85;96359.50;5052721;28;20048;-47
2023/11/06 03:34:42;;;;;;;4.40;0.93;;;9.00;93.00;;;10.81;62.96;96362.38;5070272;28;20036;-47
2023/11/06 03:37:09;;;;;;;2.43;0.67;;;8.90;93.20;;;10.84;63.12;96370.78;5036687;28;20041;-48
2023/11/06 03:39:37;;;;;;;1.43;1.23;;;9.00;93.30;;;10.84;62.83;96377.97;5052787;28;20048;-48
2023/11/06 03:42:05;;;;;;;4.43;0.70;;;8.90;93.60;;;10.86;63.04;96381.25;5072624;28;20484;-46
2023/11/06 03:44:33;;;;;;;4.73;2.03;;;9.00;93.60;;;10.79;63.18;96386.50;5073880;28;20041;-47
2023/11/06 03:47:01;;;;;;;5.13;2.20;;;8.90;93.60;;;10.78;63.33;96379.56;5074134;28;20535;-45
2023/11/06 03:49:28;;;;;;;6.20;2.10;;;8.90;93.80;;;10.79;63.32;96388.34;5039183;28;20041;-49
2023/11/06 03:51:56;;;;;;;3.60;1.13;;;8.90;93.60;;;10.74;62.98;96396.94;5073886;28;20404;-47
2023/11/06 03:54:24;;;;;;;4.60;1.10;;;8.90;93.20;;;10.76;62.88;96402.03;5063984;28;20068;-46
2023/11/06 03:56:52;;;;;;;2.10;0.83;;;8.90;93.50;;;10.79;62.85;96399.00;5055123;28;20063;-45
2023/11/06 03:59:20;;;;;;;7.53;1.90;;;9.00;93.20;;;10.80;62.89;96403.34;5073855;28;20051;-45
2023/11/06 04:01:48;;;;;;;1.93;0.70;;;9.00;92.90;;;10.81;63.04;96403.13;5073512;28;20419;-48
2023/11/06 04:04:16;;;;;;;2.13;0.67;;;8.90;92.90;;;10.79;62.96;96407.81;5073530;28;20043;-46
2023/11/06 04:06:43;;;;;;;3.17;1.27;;;8.90;92.40;;;10.75;62.81;96411.88;5073105;28;20036;-45
2023/11/06 04:09:11;;;;;;;4.17;1.10;;;8.90;92.80;;;10.72;62.72;96419.41;5073728;28;20522;-47
2023/11/06 04:11:38;;;;;;;2.67;0.80;;;8.80;93.50;;;10.69;62.88;96419.81;5073209;28;20047;-48
2023/11/06 04:14:06;;;;;;;1.90;1.43;;;8.80;93.70;;;10.65;63.27;96427.34;5055316;28;20060;-50
2023/11/06 04:16:34;;;;;;;2.30;0.90;;;8.70;94.30;;;10.63;63.55;96432.06;5073740;28;20059;-46
2023/11/06 04:19:02;;;;;;;2.13;0.80;;;8.70;94.50;;;10.67;63.54;96428.00;5055604;28;20055;-49
2023/11/06 04:21:29;;;;;;;2.43;0.87;;;8.80;94.50;;;10.71;63.28;96441.75;5073241;28;20044;-45
2023/11/06 04:23:57;;;;;;;2.63;0.80;;;8.90;94.20;;;10.73;63.34;96429.88;5073509;28;20048;-46
2023/11/06 04:26:25;;;;;;;0.87;0.70;;;8.90;93.80;;;10.73;63.68;96426.41;5073547;28;20064;-47
2023/11/06 04:28:53;;;;;;;2.60;0.70;;;8.90;93.20;;;10.75;63.71;96427.84;5073121;28;20054;-48
2023/11/06 04:31:20;;;;;;;4.03;1.00;;;9.00;93.80;;;10.76;63.12;96434.84;5073301;28;20400;-46
2023/11/06 04:33:48;;;;;;;3.10;0.90;;;9.00;93.60;;;10.78;63.25;96424.81;5073388;28;20033;-45
2023/11/06 04:36:15;;;;;;;1.87;0.80;;;9.00;92.80;;;10.78;63.20;96424.00;5064996;28;20047;-46
2023/11/06 04:38:43;;;;;;;3.33;1.03;;;9.00;92.70;;;10.76;63.15;96420.69;5072907;28;20040;-45
2023/11/06 04:41:11;;;;;;;2.63;1.60;;;9.00;92.30;;;10.71;62.98;96426.59;5072900;28;20060;-44
2023/11/06 04:43:38;;;;;;;1.10;0.70;;;8.90;91.30;;;10.71;62.94;96431.09;5073312;28;20048;-47
2023/11/06 04:46:06;;;;;;;2.90;0.70;;;8.90;91.20;;;10.73;62.66;96426.41;5072905;28;20051;-46
2023/11/06 04:48:33;;;;;;;2.13;0.60;;;8.90;91.30;;;10.74;62.66;96436.00;5072625;28;20041;-46
2023/11/06 04:51:01;;;;;;;0.90;0.60;;;8.90;90.80;;;10.69;63.04;96433.13;5072760;28;20044;-46
2023/11/06 04:53:29;;;;;;;2.77;0.70;;;8.90;89.70;;;10.65;62.49;96432.69;5072458;28;20045;-45
2023/11/06 04:55:56;;;;;;;1.00;0.63;;;8.90;89.50;;;10.67;62.66;96443.16;5072628;28;20044;-49
2023/11/06 04:58:27;;;;;;;2.97;0.80;;;8.90;89.90;;;10.68;62.58;96450.09;5072807;28;20389;-46
2023/11/06 05:00:54;;;;;;;3.90;0.90;;;8.90;89.50;;;10.61;62.35;96458.03;5072548;28;20056;-49
2023/11/06 05:03:24;;;;;;;7.80;1.37;;;8.80;89.30;;;10.56;62.71;96466.56;5072842;28;20044;-49
2023/11/06 05:05:52;;;;;;;1.10;0.60;;;8.80;90.20;;;10.56;62.69;96465.75;5071037;28;20044;-47
2023/11/06 05:08:21;;;;;;;2.87;1.03;;;8.80;90.30;;;10.55;62.66;96472.91;5072391;28;20037;-48
2023/11/06 05:10:48;;;;;;;0.50;0.50;;;8.80;89.70;;;10.55;62.45;96472.91;5072306;28;20130;-47
2023/11/06 05:13:16;;;;;;;1.60;0.80;;;8.80;90.30;;;10.59;62.52;96471.53;5072807;28;20484;-49
2023/11/06 05:15:43;;;;;;;0.60;0.50;;;8.80;90.60;;;10.57;62.60;96470.06;5072545;28;20055;-45
2023/11/06 05:18:11;;;;;;;1.40;0.60;;;8.90;90.60;;;10.56;62.69;96471.06;5072076;28;20045;-45
2023/11/06 05:20:42;;;;;;;1.90;1.00;;;8.80;90.30;;;10.57;62.59;96470.06;5072764;28;20049;-50
2023/11/06 05:23:10;;;;;;;1.47;0.80;;;8.90;91.20;;;10.58;62.87;96472.53;5072080;28;20052;-46
2023/11/06 05:25:38;;;;;;;1.37;0.93;;;8.80;91.30;;;10.59;62.91;96470.72;5072321;28;20040;-48
2023/11/06 05:28:06;;;;;;;3.80;1.10;;;8.80;92.00;;;10.60;62.61;96483.84;5072219;28;20051;-45
2023/11/06 05:30:33;;;;;;;3.30;0.67;;;8.80;91.50;;;10.60;62.46;96478.50;5054231;28;20048;-45
2023/11/06 05:33:01;;;;;;;1.23;0.90;;;8.80;91.40;;;10.60;62.46;96490.97;5072100;28;20047;-45
2023/11/06 05:35:29;;;;;;;2.33;0.70;;;8.80;89.90;;;10.57;62.01;96492.19;5072079;28;20041;-47
2023/11/06 05:37:56;;;;;;;0.80;0.73;;;8.70;90.00;;;10.55;62.19;96490.72;5071386;28;20504;-44
2023/11/06 05:40:24;;;;;;;2.93;1.10;;;8.70;90.10;;;10.52;62.24;96499.09;5071958;28;20036;-51
2023/11/06 05:42:52;;;;;;;4.00;1.10;;;8.70;90.10;;;10.46;62.29;96502.50;5071791;28;20047;-45
2023/11/06 05:45:21;;;;;;;2.33;0.90;;;8.60;90.70;;;10.39;62.65;96508.59;5071957;28;20040;-46
2023/11/06 05:47:49;;;;;;;2.37;1.13;;;8.60;91.20;;;10.38;62.20;96511.41;5071758;28;20048;-47
2023/11/06 05:50:17;;;;;;;2.20;0.83;;;8.60;91.40;;;10.36;62.11;96516.09;5071618;28;20053;-46
2023/11/06 05:52:46;;;;;;;2.57;0.97;;;8.50;91.70;;;10.34;62.25;96518.13;5071625;28;20044;-46
2023/11/06 05:55:14;;;;;;;2.50;0.93;;;8.50;91.70;;;10.25;62.36;96528.00;5071588;28;20051;-47
2023/11/06 05:57:42;;;;;;;0.60;0.60;;;8.40;91.30;;;10.20;62.74;96525.09;5053907;28;20492;-45
2023/11/06 06:00:12;;;;;;;1.20;0.90;;;8.30;92.70;;;10.16;62.59;96529.97;5071438;28;20048;-47
2023/11/06 06:02:40;;;;;;;3.17;1.00;;;8.20;92.70;;;10.14;62.24;96534.66;5071381;28;20045;-47
2023/11/06 06:05:08;;;;;;;4.00;0.73;;;8.20;93.30;;;10.12;62.39;96535.81;5067892;28;20044;-46
2023/11/06 06:07:36;;;;;;;2.03;0.67;;;8.20;92.90;;;10.08;62.75;96538.06;5052741;28;20488;-46
2023/11/06 06:10:05;;;;;;;4.13;1.23;;;8.10;93.10;;;10.03;62.45;96548.41;5071328;28;20056;-46
2023/11/06 06:12:33;;;;;;;1.60;1.30;;;8.10;93.30;;;9.94;62.79;96537.03;5071147;28;20048;-45
2023/11/06 06:15:01;;;;;;;6.33;1.20;;;7.90;94.10;;;9.91;62.54;96549.88;5071410;28;20040;-45
2023/11/06 07:43:44;;;;;;;5.73;1.20;;;7.20;99.90;;;8.53;72.90;96643.72;5088762;27;20393;-64
2023/11/06 07:46:19;;;;;;;2.13;1.10;;;8.10;97.60;;;8.91;71.75;96646.53;5068120;28;20049;-64
2023/11/06 07:48:48;;;;;;;1.27;1.00;;;8.20;96.70;;;9.19;70.82;96644.19;5068318;28;20041;-65
2023/11/06 07:51:17;;;;;;;3.13;1.33;;;8.30;96.70;;;9.45;70.13;96649.16;5067614;28;20413;-66
2023/11/06 07:53:45;;;;;;;1.67;1.57;;;8.40;96.60;;;9.63;69.68;96649.66;5067818;28;20520;-64
2023/11/06 07:56:16;;;;;;;3.33;1.20;;;8.50;96.20;;;9.76;69.04;96651.69;5068023;28;20040;-67
2023/11/06 07:58:43;;;;;;;2.23;1.10;;;8.50;95.40;;;9.92;68.41;96649.88;5067703;28;20045;-64
2023/11/06 08:01:14;;;;;;;2.90;0.87;;;8.60;95.00;;;10.02;68.01;96653.94;5067602;28;20043;-65
2023/11/06 08:03:42;;;;;;;0.97;0.70;;;8.70;94.70;;;10.12;67.56;96652.84;5067901;28;20088;-66
2023/11/06 08:06:10;;;;;;;4.13;1.07;;;8.70;94.40;;;10.17;66.99;96658.44;5066709;28;20037;-67
2023/11/06 08:08:39;;;;;;;1.67;1.07;;;8.80;93.40;;;10.24;67.06;96660.19;5067786;28;20416;-67
2023/11/06 08:11:07;;;;;;;1.83;1.10;;;8.80;93.10;;;10.35;66.82;96660.75;5067400;28;20036;-65
2023/11/06 08:13:35;;;;;;;1.13;0.97;;;8.90;93.10;;;10.40;66.46;96664.53;5067472;28;20055;-67
2023/11/06 08:16:07;;;;;;;5.80;1.67;;;9.00;91.60;;;10.45;65.91;96666.66;5067735;28;20048;-65
2023/11/06 08:18:35;;;;;;;1.97;1.03;;;9.00;92.20;;;10.49;66.06;96670.59;5067425;28;20528;-65
2023/11/06 08:21:04;;;;;;;1.10;0.57;;;9.10;91.10;;;10.53;65.45;96663.06;5049336;28;20049;-63
2023/11/06 08:23:32;;;;;;;0.97;0.77;;;9.20;90.00;;;10.57;65.25;96680.31;5067212;28;20041;-65
2023/11/06 08:25:59;;;;;;;5.03;1.20;;;9.20;89.70;;;10.59;65.03;96673.78;5066959;28;20044;-65
2023/11/06 08:28:27;;;;;;;3.30;1.00;;;9.30;89.20;;;10.67;64.86;96677.38;5067312;28;20044;-64
2023/11/06 08:30:55;;;;;;;2.77;2.10;;;9.40;89.70;;;10.76;65.31;96674.44;5066876;28;20036;-66
2023/11/06 08:33:23;;;;;;;1.57;0.77;;;9.40;89.50;;;10.72;64.66;96675.81;5049442;28;20048;-65
2023/11/06 08:35:50;;;;;;;2.43;1.23;;;9.50;88.70;;;10.81;64.60;96676.50;5067227;28;20041;-66
2023/11/06 08:38:18;;;;;;;2.90;1.00;;;9.50;88.70;;;10.88;64.63;96681.94;5066866;28;20717;-65
2023/11/06 08:40:50;;;;;;;2.07;0.80;;;9.60;88.00;;;10.94;64.32;96686.50;5066531;28;20049;-64
2023/11/06 08:43:17;;;;;;;1.03;0.90;;;9.60;88.20;;;10.98;64.07;96693.94;5061029;28;20053;-63
2023/11/06 08:45:45;;;;;;;3.67;1.10;;;9.70;87.70;;;11.00;63.77;96691.09;5053604;28;20417;-64
2023/11/06 08:48:13;;;;;;;1.67;0.77;;;9.70;86.80;;;11.07;63.96;96693.81;5054022;28;20056;-65
2023/11/06 08:50:41;;;;;;;1.67;0.73;;;9.70;86.50;;;11.11;63.61;96692.41;5045254;28;20044;-66
2023/11/06 08:53:08;;;;;;;0.63;0.50;;;9.80;86.30;;;11.19;64.11;96703.00;5052871;28;20060;-66
2023/11/06 08:55:36;;;;;;;1.47;0.80;;;9.90;86.70;;;11.27;63.46;96702.06;5053277;28;20049;-68
2023/11/06 08:58:09;;;;;;;0.97;0.87;;;9.90;86.60;;;11.34;63.59;96711.75;5035622;28;20445;-63
2023/11/06 09:00:39;;;;;;;1.60;0.87;;;10.00;86.00;;;11.38;63.17;96713.03;5059071;28;20041;-64
2023/11/06 09:03:09;;;;;;;2.10;0.80;;;10.10;84.70;;;11.41;63.29;96712.63;5058529;28;20306;-64
2023/11/06 09:05:36;;;;;;;1.80;0.90;;;10.10;84.50;;;11.42;63.24;96711.63;5055408;28;20250;-64
2023/11/06 09:08:04;;;;;;;2.70;1.20;;;10.10;85.20;;;11.44;62.91;96716.78;5060603;28;20040;-66
2023/11/06 09:10:32;;;;;;;1.47;0.90;;;10.10;85.00;;;11.50;63.26;96720.53;5058200;28;20501;-64
2023/11/06 09:13:00;;;;;;;1.40;1.17;;;10.20;85.10;;;11.53;62.51;96717.47;5057281;28;20044;-65
2023/11/06 09:15:28;;;;;;;1.57;1.10;;;10.20;84.70;;;11.61;62.58;96717.34;5057906;28;20045;-67
2023/11/06 09:17:57;;;;;;;3.70;1.00;;;10.30;84.80;;;11.68;62.70;96723.56;5056140;28;20049;-68
2023/11/06 09:20:25;;;;;;;2.87;0.80;;;10.30;85.00;;;11.67;62.68;96723.75;5035014;28;20056;-68
2023/11/06 09:22:53;;;;;;;2.47;1.10;;;10.40;83.20;;;11.71;62.36;96712.53;5034943;28;20041;-68
2023/11/06 09:25:21;;;;;;;1.13;0.87;;;10.40;83.50;;;11.77;62.49;96727.78;5053167;28;20045;-68
2023/11/06 09:27:49;;;;;;;3.63;0.87;;;10.40;83.40;;;11.75;61.86;96732.47;5053032;28;20041;-68
2023/11/06 09:30:17;;;;;;;1.13;0.90;;;10.50;82.30;;;11.76;62.22;96731.44;5052990;28;20500;-67
2023/11/06 09:32:45;;;;;;;1.43;0.83;;;10.50;82.80;;;11.85;62.13;96747.34;5052484;28;20040;-68
2023/11/06 09:35:13;;;;;;;2.33;0.88;;;10.60;83.10;;;11.90;61.99;96740.41;5052722;28;20063;-68
2023/11/06 09:37:41;;;;;;;3.07;0.90;;;10.60;83.00;;;11.88;61.52;96750.41;5034713;28;20063;-68
2023/11/06 09:40:22;;;;;;;0.93;0.90;;;10.70;80.60;;;11.91;61.46;96747.41;5052351;28;20041;-69
2023/11/06 09:42:50;;;;;;;2.20;0.75;;;10.70;80.10;;;11.96;61.66;96742.34;5044781;28;20045;-68
2023/11/06 09:45:18;;;;;;;2.07;0.80;;;10.80;81.70;;;12.02;61.32;96751.41;5052643;28;20052;-69
2023/11/06 09:47:51;;;;;;;1.02;0.70;;;10.80;80.70;;;12.06;61.29;96738.50;5034359;28;20048;-68
2023/11/06 09:50:23;;;;;;;1.58;0.63;;;10.80;81.40;;;12.13;61.27;96747.38;5035284;28;20522;-68
2023/11/06 09:52:53;;;;;;;2.90;0.80;;;10.90;82.50;;;12.14;61.08;96743.72;5044298;28;20037;-68
2023/11/06 09:55:22;;;;;;;3.87;2.07;;;10.90;79.10;;;12.15;60.44;96745.34;5055050;28;20493;-49
2023/11/06 09:57:52;;;;;;;1.20;0.65;;;10.90;79.20;;;12.18;60.31;96751.13;5042867;28;20048;-48
2023/11/06 10:00:20;;;;;;;0.90;0.70;;;11.00;78.90;;;12.23;60.41;96744.38;5052299;28;20209;-51
2023/11/06 10:02:49;;;;;;;1.47;1.10;;;11.00;79.00;;;12.26;60.23;96734.16;5044070;28;20048;-50
2023/11/06 10:05:23;;;;;;;2.30;1.03;;;11.10;79.00;;;12.33;60.04;96743.03;5052333;28;20531;-49
2023/11/06 10:07:52;;;;;;;1.33;0.98;;;11.10;78.70;;;12.37;59.80;96754.16;5044329;28;20051;-53
2023/11/06 10:10:23;;;;;;;1.73;1.03;;;11.10;77.50;;;12.43;59.77;96752.53;5052277;28;20497;-53
2023/11/06 10:13:08;;;;;;;5.03;1.17;;;11.20;78.10;;;12.43;58.84;96755.19;5042902;28;20037;-50
2023/11/06 10:15:38;;;;;;;0.87;0.87;;;11.20;75.70;;;12.49;59.50;96751.78;5051963;28;20044;-53
2023/11/06 10:18:20;;;;;;;1.15;0.93;;;11.30;78.00;;;12.56;59.64;96755.28;5034418;28;20037;-53
2023/11/06 10:20:51;;;;;;;1.45;0.75;;;11.40;77.70;;;12.60;59.29;96744.03;5051655;28;20436;-51
2023/11/06 10:23:32;;;;;;;0.57;0.50;;;11.40;77.50;;;12.63;59.01;96748.16;5034277;28;20068;-50
2023/11/06 10:26:12;;;;;;;1.20;0.95;;;11.50;76.30;;;12.72;59.22;96741.66;5045258;28;20056;-52
2023/11/06 10:28:41;;;;;;;2.33;0.80;;;11.60;76.50;;;12.77;58.86;96741.88;5051780;28;20053;-53
2023/11/06 10:31:09;;;;;;;1.25;1.00;;;11.60;76.20;;;12.82;58.81;96743.97;5051286;28;20064;-53
2023/11/06 10:33:37;;;;;;;0.95;0.70;;;11.60;76.60;;;12.85;58.13;96737.38;5051652;28;20045;-53
2023/11/06 10:36:15;;;;;;;1.38;0.90;;;11.60;74.80;;;12.85;57.44;96743.53;5051816;28;20037;-52
2023/11/06 10:38:43;;;;;;;3.20;1.38;;;11.70;71.60;;;12.88;57.48;96727.13;5051528;28;20413;-50
2023/11/06 10:41:26;;;;;;;1.17;0.80;;;11.70;73.90;;;12.93;57.32;96730.06;5051509;28;20052;-51
2023/11/06 10:44:01;;;;;;;1.33;0.90;;;11.80;73.00;;;12.95;56.73;96728.00;5027118;28;20051;-50
2023/11/06 10:46:34;;;;;;;1.60;1.02;;;11.90;70.30;;;12.94;56.24;96728.19;5051475;28;20051;-51
2023/11/06 10:49:13;;;;;;;2.78;0.95;;;11.90;69.30;;;13.04;56.24;96717.13;5051478;28;20413;-53
2023/11/06 10:51:43;;;;;;;0.70;0.63;;;12.00;71.60;;;13.09;56.09;96728.88;5051100;28;20048;-54
2023/11/06 10:54:12;;;;;;;2.05;1.02;;;12.00;69.60;;;13.05;55.70;96724.97;5033658;28;20049;-51
2023/11/06 10:56:42;;;;;;;1.88;0.80;;;12.10;70.30;;;13.15;55.71;96725.41;5033554;28;20049;-52
2023/11/06 10:59:10;;;;;;;2.10;0.90;;;12.10;70.40;;;13.20;55.47;96735.47;5051186;28;20045;-51
2023/11/06 11:01:39;;;;;;;1.67;1.10;;;12.20;69.20;;;13.23;55.33;96724.41;5032698;28;20040;-52
2023/11/06 11:04:10;;;;;;;3.00;0.85;;;12.20;69.70;;;13.26;55.55;96732.03;5051195;28;20426;-53
2023/11/06 11:06:41;;;;;;;1.13;0.85;;;12.20;68.90;;;13.31;55.54;96734.13;5033057;28;20052;-52
2023/11/06 11:09:11;;;;;;;1.35;0.70;;;12.20;70.10;;;13.41;55.69;96733.75;5050583;28;20494;-53
2023/11/06 11:11:39;;;;;;;4.72;1.25;;;12.30;71.50;;;13.53;55.87;96732.13;5032595;28;20044;-52
2023/11/06 11:14:14;;;;;;;2.45;1.40;;;12.40;72.00;;;13.61;56.02;96726.59;5033337;28;20041;-53
2023/11/06 11:16:50;;;;;;;2.25;1.27;;;12.40;70.40;;;13.67;55.80;96733.81;5032728;28;20516;-51
2023/11/06 11:19:31;;;;;;;1.40;0.90;;;12.50;71.10;;;13.65;55.35;96727.00;5050839;28;20052;-50
2023/11/06 11:22:08;;;;;;;2.38;1.30;;;12.50;70.90;;;13.77;55.63;96718.19;5043019;28;20064;-51
2023/11/06 11:24:42;;;;;;;2.13;0.98;;;12.60;70.60;;;13.81;55.12;96729.31;5050877;28;20052;-52
2023/11/06 11:27:27;;;;;;;3.53;0.90;;;12.60;69.60;;;13.79;54.58;96723.34;5050996;28;20052;-50
2023/11/06 11:29:58;;;;;;;3.78;0.80;;;12.60;68.90;;;13.79;54.14;96729.50;5051066;28;20044;-52
2023/11/06 11:32:29;;;;;;;1.45;0.95;;;12.70;69.00;;;13.84;54.35;96726.25;5033048;28;20509;-51
2023/11/06 11:35:20;;;;;;;0.60;0.60;;;12.60;69.00;;;13.83;53.96;96724.56;5050722;28;20484;-51
2023/11/06 11:37:58;;;;;;;0.50;0.50;;;12.60;66.70;;;13.85;53.96;96729.72;5002752;28;20536;-50
2023/11/06 11:40:41;;;;;;;3.33;0.93;;;12.50;68.10;;;13.79;54.06;96721.47;5051020;28;20048;-51
2023/11/06 11:43:34;;;;;;;1.13;0.63;;;12.50;67.30;;;13.75;53.63;96725.59;5044264;28;20044;-52
2023/11/06 11:46:23;;;;;;;1.65;0.75;;;12.50;67.30;;;13.78;54.23;96730.56;5038388;28;20053;-53
2023/11/06 11:48:50;;;;;;;1.00;0.70;;;12.40;69.70;;;13.81;54.14;96731.16;5050323;28;20052;-50
2023/11/06 11:51:51;;;;;;;2.10;0.90;;;12.40;69.40;;;13.81;54.33;96729.31;5050562;28;20055;-50
2023/11/06 11:54:29;;;;;;;1.52;0.80;;;12.50;68.80;;;13.88;54.51;96731.97;5043569;28;20045;-54
2023/11/06 11:57:04;;;;;;;1.00;0.70;;;12.50;70.70;;;13.90;54.58;96729.91;5050735;28;20041;-54
2023/11/06 11:59:49;;;;;;;1.35;0.82;;;12.50;70.90;;;13.89;54.72;96731.78;5050730;28;20425;-53
2023/11/06 12:02:31;;;;;;;0.70;0.70;;;12.50;71.30;;;13.88;54.96;96740.84;5044471;28;20037;-63